Airfield :
LOGIN :

Register | Disclaimer

   EN    FR    IT 

 










Legend :    VFR   Marginal VFR   IFR   Intensive IFR   Very Intensive IFR
Visi :
Ceiling :
>= 8 km
>= 3000ft
5 to 8 km
1000 to 3000 ft
1500m to 5 km
500 to 1000 ft
800 to 1500m
200 to 500 ft
< 800m
< 200 ft
Symbols :   Thunderstorms  Fog  Heavy snow  Heavy precipitations  Wind > 20 kt
SIGMETs :     Misc.  Thunderstorms  Icing  Turbulence  Mountain Waves  Volcanic Ashes






- Airport Elevation : 935 ft


EBFS - Florennes

CURRENT METAR :
  • 310355Z AUTO 17005KT 9999 BKN027/// OVC065/// 11/10 Q1022 BLU

EXPIRED METARs :
  • 310325Z AUTO 18004KT 9999 BKN026/// BKN065/// 11/10 Q1023 BLU
  • 310317Z AUTO 19004KT 9999 BKN025/// BKN060/// OVC100/// 11/10 Q1023 BLU
  • 310255Z AUTO 18005KT 9999 BKN024/// BKN036/// 11/10 Q1023 WHT
  • 310225Z AUTO 19005KT 9999 BKN023/// BKN036/// OVC100/// 11/10 Q1023 WHT
  • 310155Z AUTO 18005KT 9999 BKN023/// BKN035/// OVC055/// 11/11 Q1023 WHT
  • 310125Z AUTO 19006KT 9999 SCT024/// BKN028/// BKN100/// 11/11 Q1023 WHT
  • 310103Z AUTO 20006KT 9999 SCT024/// BKN028/// OVC055/// 12/11 Q1024 WHT

TAF TAF EBFS
Valid from the 30 at 19:00 until the 31 at 07:00 UTC


301541Z 3019/3107 22010KT 9999 BKN030
BECMG 3023/3101 19006KT 4000 BR FEW003 BKN025
TEMPO 3102/3107 2500 BR BKN003
PROB30
TEMPO 3104/3107 1200 MIFG BKN002



MET'MAP, your aeronautical weather chart ! - Copyright ORBIFLY December 2007 - Disclaimer

ORBIFLY MET'MAP TEAM :

Programming & Development : Alexandra Zaïnal
Concept & original design : Baudouin d'Aumeries
Assistance for programming : Marc-Olivier Méhu
Technical & hardware support : Manuel Goepfert

Contact : metmap@orbifly.com




SOURCES & CREDITS :

   NOAA